Acton Reynald, United Kingdom

11:45 AM BST on September 01, 2015 (GMT +0100)
Wellington Shropshire | | Change Station
CLOSE
Current Station
Personal Weather Station
Location: Wellington, Telford and Wrekin
Elevation: 295 ft
Nearby Weather Stations

Elev 295 ft 52.70 °N, 2.53 °W | Updated 10 seconds ago

Scattered Clouds
Scattered Clouds
60.9 °F
Feels Like 60.9 °F
N
0.7
Wind Variable Wind from NW
Gusts 2.3 mph

Today
High -- | Low -- °F
--% Chance of Precip.
Yesterday
High -- | Low -- °F
Precip. -- in
6:20 AM 8:00 PM
Waning Gibbous, 90% visible
Pressure 30.12 in
Visibility 6.2 miles
Clouds Scattered Clouds 1400 ft
Scattered Clouds 2300 ft
Dew Point 50 °F
Humidity 68%
Rainfall 0.00 in
Snow Depth Not available.
UV 4 out of 12
Pollen Not available.
Air Quality Not available.
Flu Activity Not available.
METAR EGNR 011020Z 33009KT 9999 SCT014 SCT023CB 16/12 Q1020
Pressure 30.12 in
Visibility 6.2 miles
Clouds Scattered Clouds 1400 ft
Scattered Clouds 2300 ft
Dew Point 50 °F
Humidity 68%
Rainfall 0.00 in
Snow Depth Not available.
UV 4 out of 12
Pollen Not available.
Air Quality Not available.
Flu Activity Not available.
METAR EGNR 011020Z 33009KT 9999 SCT014 SCT023CB 16/12 Q1020

10-Day Weather Forecast

×

Almanac

Astronomy

Sep. 01, 2015 Rise Set
Actual Time
Civil Twilight
Nautical Twilight
Astronomical Twilight
Moon
Length of Visible Light
Length of Day
Tomorrow will be .
, % of the Moon is Illuminated

Today's Extremes

Country Highs Country Lows

Community

WunderPhotos

Upload Photos

1,851,501 photos uploaded!

WunderBlogs® & News

Nearby

Air Quality

  Air Quality AQ Index Pollutant
Not available.

Snow Depth

Station Depth Elevation

Earthquake Activity

City Distance Mag. Time & Date
Minimum magnitude displayed is 2.5.

Coastal Water Temperatures

Place Temperature

Stations

Nearby Weather Stations

Station Location Temp. Windchill Dew Point Humidity Wind Precip. Elev Updated Type